Time;durP1;ratioP1;P1;durP2;ratioP2;P2;SDS_P1;SDS_P2;PMS_P1;PMS_P2;Temp;Humidity;BMP_temperature;BMP_pressure;BME280_temperature;BME280_humidity;BME280_pressure;Samples;Min_cycle;Max_cycle;Signal;HPM_P1;HPM_P2
2022/11/27 00:00:14;;;;;;;21.67;8.50;;;;;;;;;;4408062;32;20309;-67
2022/11/27 00:02:39;;;;;;;;;;;;;;;;;;4395255;32;20200;-69
2022/11/27 00:05:05;;;;;;;19.95;6.90;;;;;;;;;;4404906;32;19961;-70
2022/11/27 00:07:30;;;;;;;22.05;7.68;;;;;;;;;;4393223;32;20057;-70
2022/11/27 00:09:55;;;;;;;17.67;7.07;;;;;;;;;;4392910;32;20023;-69
2022/11/27 00:12:21;;;;;;;;;;;;;;;;;;4393771;32;20019;-69
2022/11/27 00:14:46;;;;;;;25.67;7.47;;;;;;;;;;4392292;32;19964;-69
2022/11/27 00:17:11;;;;;;;;;;;;;;;;;;4394780;32;20135;-69
2022/11/27 00:19:37;;;;;;;22.27;6.87;;;;;;;;;;4392560;32;19937;-69
2022/11/27 00:22:02;;;;;;;;;;;;;;;;;;4393524;32;20496;-70
2022/11/27 00:24:27;;;;;;;27.82;8.66;;;;;;;;;;4392956;32;19972;-69
2022/11/27 00:26:52;;;;;;;;;;;;;;;;;;4393044;32;20094;-69
2022/11/27 00:29:17;;;;;;;16.90;7.15;;;;;;;;;;4392071;32;19944;-68
2022/11/27 00:31:42;;;;;;;23.50;7.87;;;;;;;;;;4400301;32;20455;-69
2022/11/27 00:34:09;;;;;;;20.45;7.43;;;;;;;;;;4407543;32;20060;-69
2022/11/27 00:36:35;;;;;;;18.08;7.50;;;;;;;;;;4408295;32;20329;-69
2022/11/27 00:39:00;;;;;;;;;;;;;;;;;;4394662;32;20034;-69
2022/11/27 00:41:27;;;;;;;13.88;6.65;;;;;;;;;;4409014;32;19944;-70
2022/11/27 00:43:52;;;;;;;22.92;7.55;;;;;;;;;;4408085;32;20452;-69
2022/11/27 00:46:18;;;;;;;;;;;;;;;;;;4395397;32;20023;-69
2022/11/27 00:48:43;;;;;;;17.83;6.75;;;;;;;;;;4407692;32;19948;-69
2022/11/27 00:51:10;;;;;;;17.85;7.57;;;;;;;;;;4393438;32;20085;-69
2022/11/27 00:53:35;;;;;;;15.30;6.12;;;;;;;;;;4393612;32;20027;-70
2022/11/27 00:56:00;;;;;;;;;;;;;;;;;;4407430;32;20049;-69
2022/11/27 00:58:26;;;;;;;18.08;6.90;;;;;;;;;;4407122;32;19938;-70
2022/11/27 01:00:51;;;;;;;;;;;;;;;;;;4405709;32;20170;-70
2022/11/27 01:03:16;;;;;;;15.35;5.97;;;;;;;;;;4394863;32;19937;-70
2022/11/27 01:05:41;;;;;;;;;;;;;;;;;;4409384;32;20114;-69
2022/11/27 01:08:07;;;;;;;18.92;6.62;;;;;;;;;;4406875;32;19948;-69
2022/11/27 01:10:32;;;;;;;15.00;6.05;;;;;;;;;;4407106;32;20400;-69
2022/11/27 01:12:57;;;;;;;26.40;6.87;;;;;;;;;;4406895;32;20109;-69
2022/11/27 01:15:22;;;;;;;;;;;;;;;;;;4407029;32;20031;-70
2022/11/27 01:17:47;;;;;;;17.90;5.35;;;;;;;;;;4407188;32;19975;-68
2022/11/27 01:20:12;;;;;;;;;;;;;;;;;;4408139;32;20193;-69
2022/11/27 01:22:38;;;;;;;18.48;6.34;;;;;;;;;;4407125;32;20124;-69
2022/11/27 01:25:03;;;;;;;;;;;;;;;;;;4408951;32;20042;-70
2022/11/27 01:27:28;;;;;;;13.85;5.47;;;;;;;;;;4406968;32;19949;-69
2022/11/27 01:29:53;;;;;;;;;;;;;;;;;;4407037;32;20321;-69
2022/11/27 01:32:18;;;;;;;21.90;6.82;;;;;;;;;;4382222;32;20209;-69
2022/11/27 01:34:43;;;;;;;16.23;5.10;;;;;;;;;;4378988;32;20049;-69
2022/11/27 01:37:08;;;;;;;;;;;;;;;;;;4391981;32;20137;-69
2022/11/27 01:39:34;;;;;;;18.50;6.65;;;;;;;;;;4437806;27;20000;-71
2022/11/27 01:41:59;;;;;;;;;;;;;;;;;;4440157;32;20037;-70
2022/11/27 01:44:24;;;;;;;12.92;5.78;;;;;;;;;;4440494;32;19936;-71
2022/11/27 01:46:53;;;;;;;14.13;5.75;;;;;;;;;;4438576;32;20048;-71
2022/11/27 01:49:23;;;;;;;17.40;6.05;;;;;;;;;;4437671;32;20048;-70
2022/11/27 01:51:57;;;;;;;13.50;5.97;;;;;;;;;;4437019;32;20078;-70
2022/11/27 01:54:24;;;;;;;23.65;6.32;;;;;;;;;;4437441;32;20339;-71
2022/11/27 01:56:54;;;;;;;23.12;6.20;;;;;;;;;;4436958;32;20388;-71
2022/11/27 01:59:20;;;;;;;17.05;6.12;;;;;;;;;;4437666;32;20053;-71
2022/11/27 02:01:45;;;;;;;;;;;;;;;;;;4441192;32;20132;-70
2022/11/27 02:04:10;;;;;;;19.37;5.90;;;;;;;;;;4446514;32;19973;-71
2022/11/27 02:06:35;;;;;;;21.98;6.75;;;;;;;;;;4436915;32;20331;-71
2022/11/27 02:09:00;;;;;;;;;;;;;;;;;;4422506;32;20411;-71
2022/11/27 02:11:25;;;;;;;13.62;5.80;;;;;;;;;;4436175;32;19936;-71
2022/11/27 02:13:56;;;;;;;21.20;6.50;;;;;;;;;;4438292;32;20090;-71
2022/11/27 02:16:31;;;;;;;19.45;7.30;;;;;;;;;;4423725;32;20377;-71
2022/11/27 02:19:06;;;;;;;19.70;6.22;;;;;;;;;;4436525;32;20086;-71
2022/11/27 02:21:31;;;;;;;22.52;7.37;;;;;;;;;;4437907;32;20052;-72
2022/11/27 02:24:12;;;;;;;18.70;7.30;;;;;;;;;;4438169;32;20045;-71
2022/11/27 02:26:45;;;;;;;18.45;6.40;;;;;;;;;;4421019;32;20045;-70
2022/11/27 02:29:11;;;;;;;21.85;7.30;;;;;;;;;;4437028;32;20033;-71
2022/11/27 02:31:36;;;;;;;26.25;7.53;;;;;;;;;;4444397;32;20029;-71
2022/11/27 02:34:02;;;;;;;;;;;;;;;;;;4445452;32;20454;-70
2022/11/27 02:36:29;;;;;;;15.98;6.87;;;;;;;;;;4435470;32;19982;-70
2022/11/27 02:39:06;;;;;;;23.65;7.72;;;;;;;;;;4436440;32;20068;-71
2022/11/27 02:41:46;;;;;;;16.92;8.80;;;;;;;;;;4436423;32;20049;-70
2022/11/27 02:44:12;;;;;;;25.90;10.32;;;;;;;;;;4428956;32;20080;-70
2022/11/27 02:46:37;;;;;;;;;;;;;;;;;;4419322;32;20030;-71
2022/11/27 02:49:05;;;;;;;28.87;12.77;;;;;;;;;;4420130;32;19937;-70
2022/11/27 02:51:35;;;;;;;24.73;14.10;;;;;;;;;;4420974;32;20026;-70
2022/11/27 02:54:02;;;;;;;30.55;16.20;;;;;;;;;;4422049;32;20360;-71
2022/11/27 02:56:28;;;;;;;33.70;17.48;;;;;;;;;;4420148;32;20055;-72
2022/11/27 02:58:55;;;;;;;31.92;15.63;;;;;;;;;;4421643;32;20052;-71
2022/11/27 03:01:20;;;;;;;32.78;15.73;;;;;;;;;;4427703;32;20074;-71
2022/11/27 03:03:46;;;;;;;;;;;;;;;;;;4437626;32;20057;-71
2022/11/27 03:06:13;;;;;;;29.90;13.52;;;;;;;;;;4435823;32;20334;-72
2022/11/27 03:08:43;;;;;;;26.17;11.38;;;;;;;;;;4435550;32;20124;-70
2022/11/27 03:11:13;;;;;;;19.20;10.45;;;;;;;;;;4434151;32;20042;-71
2022/11/27 03:13:41;;;;;;;21.17;10.82;;;;;;;;;;4435776;32;20158;-71
2022/11/27 03:16:13;;;;;;;18.85;9.23;;;;;;;;;;4434081;32;20068;-71
2022/11/27 03:18:44;;;;;;;22.13;8.52;;;;;;;;;;4437048;32;20030;-71
2022/11/27 03:21:21;;;;;;;18.37;6.90;;;;;;;;;;4437225;32;20383;-70
2022/11/27 03:23:46;;;;;;;17.10;7.00;;;;;;;;;;4437397;32;20367;-71
2022/11/27 03:26:12;;;;;;;;;;;;;;;;;;4437426;32;20045;-70
2022/11/27 03:28:37;;;;;;;14.02;6.95;;;;;;;;;;4437370;32;19967;-70
2022/11/27 03:31:02;;;;;;;19.77;7.18;;;;;;;;;;4430409;32;20018;-70
2022/11/27 03:33:27;;;;;;;16.25;5.78;;;;;;;;;;4427627;32;20382;-70
2022/11/27 03:35:52;;;;;;;;;;;;;;;;;;4437184;32;20022;-70
2022/11/27 03:38:18;;;;;;;15.20;6.75;;;;;;;;;;4436563;32;19988;-70
2022/11/27 03:40:43;;;;;;;;;;;;;;;;;;4435658;32;20143;-71
2022/11/27 03:43:10;;;;;;;16.10;5.82;;;;;;;;;;4436731;32;19933;-72
2022/11/27 03:45:52;;;;;;;15.98;7.07;;;;;;;;;;4435500;32;20239;-71
2022/11/27 03:48:23;;;;;;;14.98;5.50;;;;;;;;;;4436380;32;20450;-71
2022/11/27 03:51:01;;;;;;;13.80;5.15;;;;;;;;;;4433991;32;20052;-71
2022/11/27 03:53:32;;;;;;;10.73;4.60;;;;;;;;;;4436973;32;20181;-71
2022/11/27 03:56:21;;;;;;;12.93;4.80;;;;;;;;;;4436961;32;20082;-71
2022/11/27 03:58:50;;;;;;;15.60;4.70;;;;;;;;;;4437149;32;20048;-71
2022/11/27 04:01:17;;;;;;;17.30;5.22;;;;;;;;;;4429436;32;20065;-71
2022/11/27 04:03:42;;;;;;;17.30;5.72;;;;;;;;;;4419374;32;20026;-70
2022/11/27 04:06:07;;;;;;;;;;;;;;;;;;4421573;32;20057;-70
2022/11/27 04:08:32;;;;;;;12.63;4.00;;;;;;;;;;4420530;32;19937;-70
2022/11/27 04:10:57;;;;;;;;;;;;;;;;;;4420674;32;20145;-71
2022/11/27 04:13:23;;;;;;;13.93;4.05;;;;;;;;;;4419908;32;20005;-71
2022/11/27 04:15:48;;;;;;;9.07;3.67;;;;;;;;;;4421299;32;20023;-71
2022/11/27 04:18:13;;;;;;;;;;;;;;;;;;4420500;32;20037;-71
2022/11/27 04:20:38;;;;;;;10.80;3.80;;;;;;;;;;4420045;32;19948;-71
2022/11/27 04:23:03;;;;;;;;;;;;;;;;;;4420175;32;20454;-71
2022/11/27 04:25:28;;;;;;;7.70;3.40;;;;;;;;;;4421317;32;19933;-71
2022/11/27 04:27:53;;;;;;;;;;;;;;;;;;4419906;32;20400;-70
2022/11/27 04:30:19;;;;;;;12.77;3.67;;;;;;;;;;4423475;32;19960;-70
2022/11/27 04:32:44;;;;;;;12.40;3.72;;;;;;;;;;4434163;32;20056;-70
2022/11/27 04:35:09;;;;;;;;;;;;;;;;;;4420360;32;20030;-70
2022/11/27 04:37:34;;;;;;;12.15;4.05;;;;;;;;;;4418283;32;19948;-71
2022/11/27 04:40:00;;;;;;;10.02;3.72;;;;;;;;;;4419366;32;20037;-71
2022/11/27 04:42:25;;;;;;;;;;;;;;;;;;4420176;32;20058;-71
2022/11/27 04:44:50;;;;;;;9.48;3.95;;;;;;;;;;4424615;32;19933;-71
2022/11/27 04:47:15;;;;;;;10.70;4.25;;;;;;;;;;4423535;32;20069;-71
2022/11/27 04:49:40;;;;;;;;;;;;;;;;;;4424906;32;20025;-71
2022/11/27 04:52:06;;;;;;;9.68;4.53;;;;;;;;;;4423866;32;20088;-71
2022/11/27 04:54:31;;;;;;;8.80;3.90;;;;;;;;;;4421818;32;20019;-72
2022/11/27 04:56:56;;;;;;;;;;;;;;;;;;4416383;32;20090;-71
2022/11/27 04:59:22;;;;;;;12.30;4.10;;;;;;;;;;4424031;32;19947;-72
2022/11/27 05:01:47;;;;;;;10.88;3.90;;;;;;;;;;4422328;32;20085;-72
2022/11/27 05:04:12;;;;;;;;;;;;;;;;;;4424447;32;20078;-73
2022/11/27 05:06:37;;;;;;;15.02;4.57;;;;;;;;;;4423869;32;19933;-73
2022/11/27 05:09:02;;;;;;;8.38;3.70;;;;;;;;;;4423412;32;20393;-72
2022/11/27 05:11:27;;;;;;;;;;;;;;;;;;4424219;32;20049;-72
2022/11/27 05:14:13;;;;;;;10.50;3.67;;;;;;;;;;4423963;32;20232;-73
2022/11/27 05:16:38;;;;;;;12.15;4.32;;;;;;;;;;4422002;32;20017;-72
2022/11/27 05:19:03;;;;;;;;;;;;;;;;;;4420587;32;20092;-73
2022/11/27 05:21:29;;;;;;;8.40;4.18;;;;;;;;;;4433641;32;19993;-73
2022/11/27 05:23:54;;;;;;;;;;;;;;;;;;4439435;32;20541;-73
2022/11/27 05:26:19;;;;;;;13.02;4.30;;;;;;;;;;4439151;32;19943;-73
2022/11/27 05:28:44;;;;;;;19.52;7.03;;;;;;;;;;4439213;32;20352;-73
2022/11/27 05:31:09;;;;;;;;;;;;;;;;;;4437833;32;20037;-73
2022/11/27 05:33:34;;;;;;;11.30;5.68;;;;;;;;;;4424490;32;19940;-72
2022/11/27 05:35:59;;;;;;;;;;;;;;;;;;4437085;32;20149;-71
2022/11/27 05:38:24;;;;;;;10.57;4.20;;;;;;;;;;4436552;32;19933;-74
2022/11/27 05:40:50;;;;;;;11.80;4.18;;;;;;;;;;4437480;32;20067;-72
2022/11/27 05:43:15;;;;;;;;;;;;;;;;;;4438884;32;20056;-72
2022/11/27 05:45:40;;;;;;;14.10;4.55;;;;;;;;;;4436741;32;19943;-72
2022/11/27 05:48:05;;;;;;;10.93;4.22;;;;;;;;;;4438302;32;20061;-71
2022/11/27 05:50:30;;;;;;;;;;;;;;;;;;4431804;32;20079;-71
2022/11/27 05:52:55;;;;;;;11.25;4.57;;;;;;;;;;4423120;32;19977;-71
2022/11/27 05:55:20;;;;;;;12.07;4.25;;;;;;;;;;4422107;32;20085;-71
2022/11/27 05:57:46;;;;;;;;;;;;;;;;;;4429177;32;20085;-71
2022/11/27 06:00:11;;;;;;;12.55;5.28;;;;;;;;;;4422987;32;19938;-71
2022/11/27 06:02:36;;;;;;;;;;;;;;;;;;4422873;32;20412;-71
2022/11/27 06:05:01;;;;;;;13.85;4.87;;;;;;;;;;4421288;32;19943;-71
2022/11/27 06:07:26;;;;;;;;;;;;;;;;;;4421594;32;20050;-72
2022/11/27 06:09:52;;;;;;;13.73;5.43;;;;;;;;;;4421017;32;19993;-71
2022/11/27 06:12:17;;;;;;;12.98;4.72;;;;;;;;;;4420831;32;20068;-71
2022/11/27 06:14:42;;;;;;;9.58;4.74;;;;;;;;;;4422825;32;20023;-71
2022/11/27 06:17:07;;;;;;;;;;;;;;;;;;4423018;32;20088;-71
2022/11/27 06:19:32;;;;;;;7.32;3.75;;;;;;;;;;4423007;32;19940;-70
2022/11/27 06:21:57;;;;;;;;;;;;;;;;;;4420942;32;20141;-71
2022/11/27 06:24:23;;;;;;;16.23;5.87;;;;;;;;;;4422759;32;19937;-71
2022/11/27 06:26:48;;;;;;;;;;;;;;;;;;4434231;32;20137;-71
2022/11/27 06:29:13;;;;;;;10.65;4.87;;;;;;;;;;4437938;32;19933;-70
2022/11/27 06:31:38;;;;;;;9.60;4.40;;;;;;;;;;4436131;32;20042;-71
2022/11/27 06:34:03;;;;;;;;;;;;;;;;;;4438242;32;20048;-71
2022/11/27 06:36:30;;;;;;;13.15;4.50;;;;;;;;;;4438030;32;19937;-71
2022/11/27 06:38:56;;;;;;;10.50;3.97;;;;;;;;;;4436713;32;20033;-72
2022/11/27 06:41:22;;;;;;;;;;;;;;;;;;4438034;32;20081;-71
2022/11/27 06:43:48;;;;;;;11.27;4.85;;;;;;;;;;4437787;32;19988;-71
2022/11/27 06:46:14;;;;;;;;;;;;;;;;;;4437258;32;20048;-71
2022/11/27 06:48:39;;;;;;;12.20;5.22;;;;;;;;;;4436041;32;19944;-72
2022/11/27 06:51:04;;;;;;;;;;;;;;;;;;4437494;32;20455;-72
2022/11/27 06:53:30;;;;;;;15.65;4.80;;;;;;;;;;4437803;32;19947;-69
2022/11/27 06:55:56;;;;;;;13.32;4.75;;;;;;;;;;4436857;32;20060;-71
2022/11/27 06:58:21;;;;;;;12.35;5.10;;;;;;;;;;4437627;32;20093;-71
2022/11/27 07:00:46;;;;;;;;;;;;;;;;;;4437219;32;20034;-70
2022/11/27 07:03:11;;;;;;;11.55;5.03;;;;;;;;;;4437163;32;19980;-71
2022/11/27 07:05:36;;;;;;;;;;;;;;;;;;4423815;32;20121;-71
2022/11/27 07:08:02;;;;;;;15.93;4.82;;;;;;;;;;4436806;32;19945;-71
2022/11/27 07:10:27;;;;;;;15.15;5.40;;;;;;;;;;4435891;32;20021;-71
2022/11/27 07:12:52;;;;;;;;;;;;;;;;;;4434990;32;20446;-72
2022/11/27 07:15:18;;;;;;;14.73;6.50;;;;;;;;;;4435524;32;19943;-72
2022/11/27 07:17:43;;;;;;;;;;;;;;;;;;4436304;32;20150;-71
2022/11/27 07:20:08;;;;;;;12.82;5.82;;;;;;;;;;4408349;32;19976;-72
2022/11/27 07:22:33;;;;;;;;;;;;;;;;;;4422017;32;20166;-72
2022/11/27 07:24:58;;;;;;;15.10;5.55;;;;;;;;;;4419995;32;19932;-72
2022/11/27 07:27:25;;;;;;;15.07;6.25;;;;;;;;;;4436430;32;20029;-72
2022/11/27 07:29:50;;;;;;;19.80;5.60;;;;;;;;;;4435070;32;20030;-72
2022/11/27 07:32:15;;;;;;;;;;;;;;;;;;4436557;32;20025;-72
2022/11/27 07:34:40;;;;;;;12.57;4.90;;;;;;;;;;4436823;32;19933;-72
2022/11/27 07:37:06;;;;;;;15.38;5.40;;;;;;;;;;4436514;32;20450;-71
2022/11/27 07:39:31;;;;;;;;;;;;;;;;;;4435662;32;20034;-72
2022/11/27 07:41:56;;;;;;;15.57;5.22;;;;;;;;;;4436601;32;20006;-72
2022/11/27 07:44:21;;;;;;;;;;;;;;;;;;4425418;32;20156;-71
2022/11/27 07:46:46;;;;;;;9.30;4.57;;;;;;;;;;4421583;32;19999;-71
2022/11/27 07:49:11;;;;;;;10.25;4.70;;;;;;;;;;4419548;32;20404;-72
2022/11/27 07:51:36;;;;;;;;;;;;;;;;;;4421626;32;20090;-72
2022/11/27 07:54:02;;;;;;;14.63;6.28;;;;;;;;;;4420053;32;19933;-72
2022/11/27 07:56:27;;;;;;;;;;;;;;;;;;4406695;32;20547;-73
2022/11/27 07:58:52;;;;;;;10.77;5.32;;;;;;;;;;4419675;32;20282;-72
2022/11/27 08:01:18;;;;;;;11.02;5.35;;;;;;;;;;4419386;32;20086;-72
2022/11/27 08:03:43;;;;;;;11.73;4.75;;;;;;;;;;4419406;32;20034;-72
2022/11/27 08:06:08;;;;;;;;;;;;;;;;;;4421515;32;20023;-72
2022/11/27 08:08:33;;;;;;;12.02;4.68;;;;;;;;;;4435263;32;19941;-72
2022/11/27 08:10:58;;;;;;;13.82;5.18;;;;;;;;;;4436091;32;20091;-72
2022/11/27 08:13:24;;;;;;;;;;;;;;;;;;4421258;32;20399;-72
2022/11/27 08:15:49;;;;;;;12.30;5.55;;;;;;;;;;4436318;32;19932;-71
2022/11/27 08:18:14;;;;;;;14.13;5.05;;;;;;;;;;4437875;32;20144;-71
2022/11/27 08:20:39;;;;;;;13.93;5.28;;;;;;;;;;4439058;32;20396;-72
2022/11/27 08:23:04;;;;;;;;;;;;;;;;;;4438947;32;20022;-72
2022/11/27 08:25:30;;;;;;;16.15;5.37;;;;;;;;;;4437386;32;19967;-72
2022/11/27 08:27:55;;;;;;;13.77;5.87;;;;;;;;;;4439335;32;20566;-71
2022/11/27 08:30:22;;;;;;;;;;;;;;;;;;4439279;32;20045;-71
2022/11/27 08:32:47;;;;;;;11.57;5.47;;;;;;;;;;4437827;32;19970;-72
2022/11/27 08:35:12;;;;;;;;;;;;;;;;;;4439634;32;20022;-71
2022/11/27 08:37:37;;;;;;;13.98;6.18;;;;;;;;;;4424324;32;19929;-72
2022/11/27 08:40:03;;;;;;;15.02;6.80;;;;;;;;;;4437255;32;20037;-71
2022/11/27 08:42:28;;;;;;;;;;;;;;;;;;4423891;32;20022;-71
2022/11/27 08:44:53;;;;;;;17.73;7.15;;;;;;;;;;4437593;32;20212;-71
2022/11/27 08:47:18;;;;;;;10.43;5.37;;;;;;;;;;4424770;32;20030;-71
2022/11/27 08:49:44;;;;;;;12.63;5.57;;;;;;;;;;4424113;32;20138;-71
2022/11/27 08:52:09;;;;;;;;;;;;;;;;;;4439659;32;20025;-70
2022/11/27 08:54:34;;;;;;;13.30;5.57;;;;;;;;;;4439393;32;19966;-71
2022/11/27 08:56:59;;;;;;;9.15;5.20;;;;;;;;;;4424528;32;20093;-70
2022/11/27 08:59:24;;;;;;;;;;;;;;;;;;4425899;32;20086;-70
2022/11/27 09:01:49;;;;;;;17.65;6.45;;;;;;;;;;4424964;32;19933;-71
2022/11/27 09:04:14;;;;;;;;;;;;;;;;;;4429463;32;20232;-71
2022/11/27 09:06:40;;;;;;;17.50;7.47;;;;;;;;;;4423629;32;20003;-72
2022/11/27 09:09:06;;;;;;;18.92;7.65;;;;;;;;;;4422577;32;20084;-71
2022/11/27 09:11:32;;;;;;;15.95;6.30;;;;;;;;;;4422281;32;20072;-71
2022/11/27 09:13:57;;;;;;;;;;;;;;;;;;4423389;32;20026;-71
2022/11/27 09:16:22;;;;;;;14.82;6.35;;;;;;;;;;4422890;32;19956;-71
2022/11/27 09:18:48;;;;;;;13.45;6.40;;;;;;;;;;4421399;32;20064;-71
2022/11/27 09:21:14;;;;;;;19.37;8.13;;;;;;;;;;4409550;32;20034;-71
2022/11/27 09:23:39;;;;;;;15.38;6.57;;;;;;;;;;4423380;32;20050;-71
2022/11/27 09:26:05;;;;;;;;;;;;;;;;;;4423585;32;20204;-71
2022/11/27 09:28:33;;;;;;;18.60;6.05;;;;;;;;;;4421699;32;20001;-71
2022/11/27 09:31:00;;;;;;;13.05;6.15;;;;;;;;;;4421032;32;20156;-71
2022/11/27 09:33:26;;;;;;;17.05;8.38;;;;;;;;;;4424303;32;20030;-72
2022/11/27 09:35:51;;;;;;;;;;;;;;;;;;4436722;32;20362;-71
2022/11/27 09:38:16;;;;;;;16.52;7.28;;;;;;;;;;4437754;32;19965;-71
2022/11/27 09:40:41;;;;;;;;;;;;;;;;;;4436842;32;20171;-71
2022/11/27 09:43:10;;;;;;;14.27;6.90;;;;;;;;;;4437079;32;19964;-71
2022/11/27 09:45:38;;;;;;;21.42;7.70;;;;;;;;;;4436758;32;20063;-71
2022/11/27 09:48:07;;;;;;;12.88;6.62;;;;;;;;;;4437095;32;20374;-71
2022/11/27 09:50:39;;;;;;;18.77;7.12;;;;;;;;;;4436774;32;20101;-71
2022/11/27 09:53:12;;;;;;;13.68;6.28;;;;;;;;;;4437939;32;20071;-70
2022/11/27 09:55:41;;;;;;;20.17;7.40;;;;;;;;;;4424233;32;20041;-71
2022/11/27 09:58:09;;;;;;;22.70;7.62;;;;;;;;;;4437777;32;20065;-71
2022/11/27 10:00:34;;;;;;;16.75;7.65;;;;;;;;;;4436314;32;20029;-69
2022/11/27 10:02:59;;;;;;;;;;;;;;;;;;4436103;32;20465;-70
2022/11/27 10:05:27;;;;;;;20.42;7.85;;;;;;;;;;4421183;32;19974;-71
2022/11/27 10:08:00;;;;;;;17.55;7.72;;;;;;;;;;4421402;32;20102;-71
2022/11/27 10:10:34;;;;;;;14.40;7.18;;;;;;;;;;4421064;32;20053;-71
2022/11/27 10:13:09;;;;;;;14.63;7.07;;;;;;;;;;4421008;32;20026;-71
2022/11/27 10:15:37;;;;;;;17.83;7.53;;;;;;;;;;4422855;32;20095;-71
2022/11/27 10:18:27;;;;;;;18.75;7.72;;;;;;;;;;4420532;32;20131;-71
2022/11/27 10:20:55;;;;;;;18.15;6.93;;;;;;;;;;4422451;32;20037;-71
2022/11/27 10:23:31;;;;;;;17.10;8.35;;;;;;;;;;4422401;32;20026;-71
2022/11/27 10:26:01;;;;;;;16.17;7.55;;;;;;;;;;4421099;32;20122;-71
2022/11/27 10:28:45;;;;;;;15.40;6.93;;;;;;;;;;4406952;32;20088;-71
2022/11/27 10:31:21;;;;;;;20.35;7.87;;;;;;;;;;4421263;32;20034;-70
2022/11/27 10:33:52;;;;;;;16.73;7.50;;;;;;;;;;4422678;32;20145;-71
2022/11/27 10:36:25;;;;;;;14.65;7.28;;;;;;;;;;4407386;32;20156;-71
2022/11/27 10:38:50;;;;;;;15.43;9.18;;;;;;;;;;4420324;32;20400;-71
2022/11/27 10:41:15;;;;;;;;;;;;;;;;;;4421766;32;20079;-71
2022/11/27 10:43:41;;;;;;;19.33;8.07;;;;;;;;;;4420619;32;19933;-71
2022/11/27 10:46:06;;;;;;;;;;;;;;;;;;4421856;32;20490;-72
2022/11/27 10:48:31;;;;;;;12.98;6.95;;;;;;;;;;4420077;32;19972;-71
2022/11/27 10:50:58;;;;;;;13.07;7.25;;;;;;;;;;4420276;32;20025;-71
2022/11/27 10:53:26;;;;;;;15.38;7.30;;;;;;;;;;4421923;32;20052;-71
2022/11/27 10:55:51;;;;;;;16.83;7.32;;;;;;;;;;4421629;32;20026;-70
2022/11/27 10:58:16;;;;;;;;;;;;;;;;;;4420643;32;20081;-72
2022/11/27 11:00:42;;;;;;;15.82;7.53;;;;;;;;;;4421256;32;19933;-70
2022/11/27 11:03:14;;;;;;;15.02;6.68;;;;;;;;;;4425062;32;20025;-71
2022/11/27 11:05:39;;;;;;;16.15;7.40;;;;;;;;;;4435829;32;20056;-72
2022/11/27 11:08:05;;;;;;;;;;;;;;;;;;4437299;32;20030;-71
2022/11/27 11:10:34;;;;;;;14.23;6.62;;;;;;;;;;4437075;32;20344;-71
2022/11/27 11:13:14;;;;;;;17.75;7.18;;;;;;;;;;4422834;32;20045;-72
2022/11/27 11:15:51;;;;;;;11.98;6.87;;;;;;;;;;4435792;32;20086;-72
2022/11/27 11:18:21;;;;;;;11.85;7.28;;;;;;;;;;4435160;32;20392;-71
2022/11/27 11:20:47;;;;;;;11.80;6.45;;;;;;;;;;4435246;32;20441;-72
2022/11/27 11:23:39;;;;;;;15.55;7.28;;;;;;;;;;4436265;32;20022;-70
2022/11/27 11:26:07;;;;;;;13.93;7.50;;;;;;;;;;4431110;32;20060;-71
2022/11/27 11:28:34;;;;;;;12.43;6.87;;;;;;;;;;4436071;32;20087;-73
2022/11/27 11:31:04;;;;;;;12.98;7.25;;;;;;;;;;4436122;32;20022;-71
2022/11/27 11:33:29;;;;;;;21.62;7.22;;;;;;;;;;4436289;32;20098;-71
2022/11/27 11:35:54;;;;;;;;;;;;;;;;;;4435061;32;20017;-71
2022/11/27 11:38:23;;;;;;;12.63;6.93;;;;;;;;;;4435655;32;20333;-71
2022/11/27 11:40:59;;;;;;;15.70;7.80;;;;;;;;;;4434595;32;20133;-71
2022/11/27 11:43:25;;;;;;;9.85;6.90;;;;;;;;;;4434849;32;20100;-71
2022/11/27 11:45:51;;;;;;;13.18;6.85;;;;;;;;;;4435918;32;20021;-72
2022/11/27 11:48:16;;;;;;;;;;;;;;;;;;4435312;32;20025;-72
2022/11/27 11:50:51;;;;;;;13.73;8.30;;;;;;;;;;4428311;32;19932;-72
2022/11/27 11:53:36;;;;;;;26.05;9.90;;;;;;;;;;4440748;32;20483;-72
2022/11/27 11:56:05;;;;;;;17.75;8.23;;;;;;;;;;4439756;32;20041;-72
2022/11/27 11:58:44;;;;;;;23.48;10.43;;;;;;;;;;4439929;32;20021;-72
2022/11/27 12:01:20;;;;;;;17.62;8.90;;;;;;;;;;4440274;32;20073;-72
2022/11/27 12:03:45;;;;;;;17.27;8.65;;;;;;;;;;4440406;32;20025;-72
2022/11/27 12:06:11;;;;;;;;;;;;;;;;;;4441490;32;20339;-72
2022/11/27 12:08:39;;;;;;;14.02;6.02;;;;;;;;;;4441125;32;19986;-69
2022/11/27 12:11:07;;;;;;;12.23;7.50;;;;;;;;;;4422031;32;20018;-71
2022/11/27 12:13:51;;;;;;;10.32;6.75;;;;;;;;;;4425814;32;20093;-72
2022/11/27 12:16:21;;;;;;;13.45;6.45;;;;;;;;;;4411458;32;20061;-71
2022/11/27 12:18:56;;;;;;;15.27;6.37;;;;;;;;;;4424610;32;20079;-71
2022/11/27 12:21:25;;;;;;;11.32;5.53;;;;;;;;;;4410642;32;20022;-71
2022/11/27 12:23:53;;;;;;;13.77;5.57;;;;;;;;;;4425537;32;20060;-71
2022/11/27 12:26:21;;;;;;;16.20;6.40;;;;;;;;;;4425118;32;20350;-71
2022/11/27 12:29:01;;;;;;;11.02;5.80;;;;;;;;;;4424210;32;20084;-71
2022/11/27 12:31:42;;;;;;;13.05;7.55;;;;;;;;;;4425824;32;20215;-71
2022/11/27 12:34:13;;;;;;;10.98;5.55;;;;;;;;;;4426925;32;20080;-71
2022/11/27 12:36:54;;;;;;;13.73;5.82;;;;;;;;;;4427346;32;20055;-72
2022/11/27 12:39:28;;;;;;;14.18;5.53;;;;;;;;;;4437745;32;20029;-70
2022/11/27 12:41:56;;;;;;;17.65;7.62;;;;;;;;;;4411810;32;20061;-72
2022/11/27 12:44:30;;;;;;;10.00;5.12;;;;;;;;;;4420912;32;20051;-72
2022/11/27 12:47:06;;;;;;;13.27;5.00;;;;;;;;;;4408671;32;20114;-72
2022/11/27 12:49:37;;;;;;;13.82;5.87;;;;;;;;;;4420973;32;20033;-72
2022/11/27 12:52:10;;;;;;;12.43;5.68;;;;;;;;;;4407873;32;20660;-71
2022/11/27 12:54:44;;;;;;;10.57;5.75;;;;;;;;;;4421531;32;20082;-71
2022/11/27 12:57:16;;;;;;;16.15;7.90;;;;;;;;;;4421704;32;20435;-71
2022/11/27 12:59:47;;;;;;;10.90;5.55;;;;;;;;;;4422219;32;20068;-71
2022/11/27 13:02:31;;;;;;;12.85;5.97;;;;;;;;;;4422993;32;20095;-70
2022/11/27 13:05:00;;;;;;;11.55;6.05;;;;;;;;;;4417771;32;20088;-72
2022/11/27 13:07:37;;;;;;;11.40;6.03;;;;;;;;;;4419738;32;20494;-71
2022/11/27 13:10:02;;;;;;;11.43;5.90;;;;;;;;;;4405738;32;20049;-72
2022/11/27 13:12:36;;;;;;;12.43;5.47;;;;;;;;;;4418755;32;20069;-71
2022/11/27 13:15:05;;;;;;;12.02;6.35;;;;;;;;;;4418387;32;20042;-71
2022/11/27 13:17:34;;;;;;;18.55;7.05;;;;;;;;;;4419675;32;20059;-71
2022/11/27 13:19:59;;;;;;;10.50;6.37;;;;;;;;;;4419895;32;20046;-72
2022/11/27 13:22:26;;;;;;;;;;;;;;;;;;4406429;32;20057;-70
2022/11/27 13:24:52;;;;;;;11.27;5.55;;;;;;;;;;4420042;32;19941;-71
2022/11/27 13:27:17;;;;;;;;;;;;;;;;;;4418428;32;20129;-70
2022/11/27 13:29:48;;;;;;;12.02;5.55;;;;;;;;;;4419756;32;20206;-70
2022/11/27 13:32:22;;;;;;;17.17;6.28;;;;;;;;;;4419361;32;20141;-70
2022/11/27 13:34:48;;;;;;;11.30;6.25;;;;;;;;;;4417798;32;20026;-71
2022/11/27 13:37:32;;;;;;;12.43;6.60;;;;;;;;;;4418953;32;20152;-70
2022/11/27 13:39:59;;;;;;;13.05;6.40;;;;;;;;;;4418048;32;20037;-72
2022/11/27 13:42:25;;;;;;;15.18;6.95;;;;;;;;;;4418921;32;20056;-70
2022/11/27 13:44:50;;;;;;;;;;;;;;;;;;4418463;32;20034;-71
2022/11/27 13:47:17;;;;;;;12.27;6.22;;;;;;;;;;4406915;32;20364;-71
2022/11/27 13:49:44;;;;;;;13.45;6.43;;;;;;;;;;4418091;32;20061;-71
2022/11/27 13:52:11;;;;;;;15.65;6.65;;;;;;;;;;4404528;32;20030;-71
2022/11/27 13:54:36;;;;;;;14.23;6.62;;;;;;;;;;4417409;32;20141;-70
2022/11/27 13:57:01;;;;;;;;;;;;;;;;;;4418446;32;20083;-72
2022/11/27 13:59:26;;;;;;;14.02;7.28;;;;;;;;;;4419735;32;19980;-71
2022/11/27 14:01:59;;;;;;;12.60;7.05;;;;;;;;;;4418867;32;20089;-70
2022/11/27 14:04:30;;;;;;;11.80;6.40;;;;;;;;;;4419342;32;20059;-70
2022/11/27 14:07:02;;;;;;;13.65;7.68;;;;;;;;;;4418065;32;20090;-71
2022/11/27 14:09:31;;;;;;;12.23;6.45;;;;;;;;;;4405957;32;20025;-70
2022/11/27 14:11:56;;;;;;;18.23;7.53;;;;;;;;;;4417646;32;20538;-72
2022/11/27 14:14:21;;;;;;;;;;;;;;;;;;4417899;32;20057;-72
2022/11/27 14:17:13;;;;;;;16.37;6.50;;;;;;;;;;4404172;32;19983;-71
2022/11/27 14:19:45;;;;;;;13.35;6.75;;;;;;;;;;4393792;32;20130;-71
2022/11/27 14:22:15;;;;;;;11.48;6.97;;;;;;;;;;4418983;32;20041;-71
2022/11/27 14:24:42;;;;;;;12.88;6.62;;;;;;;;;;4416410;32;20030;-70
2022/11/27 14:27:21;;;;;;;14.48;7.65;;;;;;;;;;4417281;32;20038;-71
2022/11/27 14:29:46;;;;;;;13.45;6.82;;;;;;;;;;4419223;32;20069;-71
2022/11/27 14:32:12;;;;;;;;;;;;;;;;;;4418058;32;20086;-71
2022/11/27 14:34:37;;;;;;;14.27;6.93;;;;;;;;;;4418122;32;19977;-71
2022/11/27 14:37:02;;;;;;;;;;;;;;;;;;4417649;32;20097;-70
2022/11/27 14:39:29;;;;;;;12.80;6.97;;;;;;;;;;4417999;32;20288;-70
2022/11/27 14:42:17;;;;;;;13.23;8.00;;;;;;;;;;4416235;32;20034;-71
2022/11/27 14:44:42;;;;;;;10.95;7.43;;;;;;;;;;4418261;32;20560;-72
2022/11/27 14:47:07;;;;;;;;;;;;;;;;;;4404246;32;20042;-71
2022/11/27 14:49:33;;;;;;;11.43;6.65;;;;;;;;;;4417251;32;19969;-71
2022/11/27 14:51:58;;;;;;;;;;;;;;;;;;4418733;32;20165;-71
2022/11/27 14:54:25;;;;;;;10.38;7.03;;;;;;;;;;4417510;32;20032;-72
2022/11/27 14:56:50;;;;;;;17.58;7.65;;;;;;;;;;4417283;32;20542;-71
2022/11/27 14:59:15;;;;;;;;;;;;;;;;;;4406022;32;20088;-71
2022/11/27 15:01:41;;;;;;;16.92;7.18;;;;;;;;;;4417086;32;19937;-71